createdAt,value
2023-03-23T15:58:11.352Z,12.69
2023-03-23T16:00:38.790Z,12.71
2023-03-23T16:03:09.403Z,12.58
2023-03-23T16:05:36.010Z,12.50
2023-03-23T16:08:02.460Z,12.50
2023-03-23T16:10:29.545Z,12.49
2023-03-23T16:12:56.154Z,12.51
2023-03-23T16:15:22.689Z,12.56
2023-03-23T16:17:49.301Z,12.71
2023-03-23T16:20:19.364Z,12.80
2023-03-23T16:22:47.230Z,12.88
2023-03-23T16:25:14.718Z,12.88
2023-03-23T16:27:42.357Z,12.87
2023-03-23T16:30:21.153Z,12.89
2023-03-23T16:32:47.661Z,12.94
2023-03-23T16:35:15.320Z,13.04
2023-03-23T16:38:07.789Z,13.13
2023-03-23T16:40:36.829Z,13.06
2023-03-23T16:43:08.920Z,12.98
2023-03-23T16:45:43.275Z,12.91
2023-03-23T16:48:16.440Z,12.81
2023-03-23T16:50:44.288Z,12.64
2023-03-23T16:53:11.056Z,12.61
2023-03-23T16:55:38.702Z,12.49
2023-03-23T16:58:16.385Z,12.44
2023-03-23T17:00:45.879Z,12.42
2023-03-23T17:03:13.203Z,12.34
2023-03-23T17:05:40.083Z,12.32
2023-03-23T17:08:07.050Z,12.23
2023-03-23T17:10:33.484Z,12.18
2023-03-23T17:13:00.329Z,12.13
2023-03-23T17:15:27.437Z,12.13
2023-03-23T17:17:54.905Z,12.14
2023-03-23T17:20:21.964Z,12.16
2023-03-23T17:22:48.355Z,12.17
2023-03-23T17:25:14.860Z,12.23
2023-03-23T17:27:42.609Z,12.29
2023-03-23T17:30:10.890Z,12.30
2023-03-23T17:32:37.429Z,12.33
2023-03-23T17:35:05.339Z,12.37
2023-03-23T17:37:32.463Z,12.38
2023-03-23T17:39:58.843Z,12.38
2023-03-23T17:42:25.535Z,12.39
2023-03-23T17:44:51.905Z,12.36
2023-03-23T17:47:18.386Z,12.32
2023-03-23T17:49:44.859Z,12.32
2023-03-23T17:52:11.315Z,12.31
2023-03-23T17:54:38.128Z,12.24
2023-03-23T17:57:04.956Z,12.17
2023-03-23T17:59:31.695Z,12.10
2023-03-23T18:01:58.245Z,12.08
2023-03-23T18:04:26.799Z,12.07
2023-03-23T18:06:57.561Z,12.06
2023-03-23T18:09:25.367Z,12.06
2023-03-23T18:11:52.554Z,12.04
2023-03-23T18:14:19.815Z,11.97
2023-03-23T18:16:46.280Z,12.00
2023-03-23T18:19:12.741Z,11.99
2023-03-23T18:21:39.167Z,11.92
2023-03-23T18:24:05.825Z,11.91
2023-03-23T18:26:32.280Z,11.90
2023-03-23T18:28:58.658Z,11.85
2023-03-23T18:31:25.376Z,11.84
2023-03-23T18:33:53.951Z,11.83
2023-03-23T18:36:23.534Z,11.81
2023-03-23T18:38:50.826Z,11.78
2023-03-23T18:41:18.334Z,11.79
2023-03-23T18:43:44.753Z,11.80
2023-03-23T18:46:11.214Z,11.80
2023-03-23T18:48:37.645Z,11.80
2023-03-23T18:51:04.453Z,11.81
2023-03-23T18:53:31.502Z,11.79
2023-03-23T18:56:12.405Z,11.78
2023-03-23T18:58:39.118Z,11.73
2023-03-23T19:01:08.098Z,11.71
2023-03-23T19:03:36.136Z,11.69
2023-03-23T19:06:06.223Z,11.69
2023-03-23T19:08:34.740Z,11.71
2023-03-23T19:11:03.850Z,11.73
2023-03-23T19:13:33.982Z,11.68
2023-03-23T19:16:00.932Z,11.64
2023-03-23T19:18:28.125Z,11.64
2023-03-23T19:21:13.486Z,11.60
2023-03-23T19:23:41.578Z,11.60
2023-03-23T19:26:08.015Z,11.61
2023-03-23T19:29:18.824Z,11.54
2023-03-23T19:31:24.978Z,11.49
2023-03-23T19:33:54.459Z,11.47
2023-03-23T19:36:22.479Z,11.43
2023-03-23T19:38:50.172Z,11.44
2023-03-23T19:41:19.044Z,11.43
2023-03-23T19:43:45.843Z,11.46
2023-03-23T19:46:13.650Z,11.49
2023-03-23T19:48:40.696Z,11.51
2023-03-23T19:51:09.064Z,11.51
2023-03-23T19:53:35.543Z,11.52
2023-03-23T19:56:03.654Z,11.52
2023-03-23T19:58:32.263Z,11.53
2023-03-23T20:01:00.647Z,11.49
2023-03-23T20:03:27.810Z,11.45
2023-03-23T20:06:01.276Z,11.42
2023-03-23T20:08:27.792Z,11.40
2023-03-23T20:11:02.630Z,11.39
2023-03-23T20:13:29.005Z,11.39
2023-03-23T20:15:58.099Z,11.39
2023-03-23T20:18:27.050Z,11.39
2023-03-23T20:21:13.817Z,11.37
2023-03-23T20:23:41.950Z,11.36
2023-03-23T20:26:14.561Z,11.35
2023-03-23T20:28:42.560Z,11.34
2023-03-23T20:31:36.900Z,11.32
2023-03-23T20:34:28.485Z,11.31
2023-03-23T20:36:55.721Z,11.28
2023-03-23T20:39:23.289Z,11.27
2023-03-23T20:41:51.543Z,11.33
2023-03-23T20:44:23.052Z,11.43
2023-03-23T20:46:50.995Z,11.47
2023-03-23T20:49:19.583Z,11.51
2023-03-23T20:51:46.838Z,11.53
2023-03-23T20:54:15.597Z,11.52
2023-03-23T20:56:43.364Z,11.53
2023-03-23T20:59:10.841Z,11.53
2023-03-23T21:01:39.683Z,11.56
2023-03-23T21:04:15.141Z,11.54
2023-03-23T21:06:43.083Z,11.49
2023-03-23T21:09:10.030Z,11.47
2023-03-23T21:11:36.848Z,11.47
2023-03-23T21:14:04.707Z,11.50
2023-03-23T21:16:31.546Z,11.51
2023-03-23T21:18:58.058Z,11.53
2023-03-23T21:21:27.143Z,11.47
2023-03-23T21:23:53.714Z,11.51
2023-03-23T21:26:22.524Z,11.51
2023-03-23T21:28:50.788Z,11.48
2023-03-23T21:31:18.112Z,11.42
2023-03-23T21:33:44.894Z,11.42
2023-03-23T21:36:11.834Z,11.40
2023-03-23T21:38:39.713Z,11.42
2023-03-23T21:41:14.611Z,11.45
2023-03-23T21:43:41.674Z,11.47
2023-03-23T21:46:09.791Z,11.52
2023-03-23T21:48:38.741Z,11.53
2023-03-23T21:51:09.701Z,11.51
2023-03-23T21:53:36.853Z,11.53
2023-03-23T21:56:07.600Z,11.47
2023-03-23T21:58:37.364Z,11.47
2023-03-23T22:01:05.169Z,11.44
2023-03-23T22:03:32.982Z,11.50
2023-03-23T22:06:06.607Z,11.55
2023-03-23T22:08:32.986Z,11.59
2023-03-23T22:11:02.124Z,11.57
2023-03-23T22:13:33.455Z,11.57
2023-03-23T22:16:02.122Z,11.59
2023-03-23T22:18:28.788Z,11.59
2023-03-23T22:20:55.248Z,11.60
2023-03-23T22:23:21.959Z,11.60
2023-03-23T22:25:48.334Z,11.64
2023-03-23T22:28:14.864Z,11.64
2023-03-23T22:30:41.286Z,11.66
2023-03-23T22:33:07.910Z,11.61
2023-03-23T22:35:34.528Z,11.63
2023-03-23T22:38:02.992Z,11.65
2023-03-23T22:40:32.502Z,11.68
2023-03-23T22:42:58.974Z,11.68
2023-03-23T22:45:27.216Z,11.67
2023-03-23T22:47:54.099Z,11.68
2023-03-23T22:50:21.519Z,11.68
2023-03-23T22:52:48.362Z,11.71
2023-03-23T22:55:14.802Z,11.74
2023-03-23T22:57:41.358Z,11.76
2023-03-23T23:00:14.127Z,11.77
2023-03-23T23:02:43.648Z,11.78
2023-03-23T23:05:11.743Z,11.77
2023-03-23T23:07:38.387Z,11.75
2023-03-23T23:10:05.668Z,11.73
2023-03-23T23:12:34.898Z,11.79
2023-03-23T23:15:04.028Z,11.85
2023-03-23T23:17:31.880Z,11.89
2023-03-23T23:19:59.616Z,11.89
2023-03-23T23:22:26.421Z,11.89
2023-03-23T23:24:52.788Z,11.90
2023-03-23T23:27:19.444Z,11.88
2023-03-23T23:29:45.919Z,11.90
2023-03-23T23:32:12.444Z,11.91
2023-03-23T23:34:39.007Z,11.94
2023-03-23T23:37:05.642Z,11.94
2023-03-23T23:39:32.055Z,11.92
2023-03-23T23:41:58.483Z,11.93
2023-03-23T23:44:24.860Z,11.94
2023-03-23T23:46:51.330Z,11.94
2023-03-23T23:49:17.690Z,11.91
2023-03-23T23:51:44.714Z,11.93
2023-03-23T23:54:11.130Z,11.94
2023-03-23T23:56:37.510Z,11.86
2023-03-23T23:59:03.999Z,11.85
